TAF KJKL
KJKL 081742Z 0818/0918 VRB04KT P6SM FEW100 FM091200 VRB05KT P6SM BKN250=
METAR KJKL
WC KJKL
WS KJKL
WV KJKL